createdAt,value
2022-10-31T00:01:34.370Z,100.00
2022-10-31T00:04:02.931Z,100.00
2022-10-31T00:06:31.517Z,100.00
2022-10-31T00:09:03.062Z,100.00
2022-10-31T00:11:31.674Z,100.00
2022-10-31T00:14:00.555Z,100.00
2022-10-31T00:16:30.130Z,100.00
2022-10-31T00:19:00.996Z,100.00
2022-10-31T00:21:31.593Z,100.00
2022-10-31T00:24:02.033Z,100.00
2022-10-31T00:26:31.062Z,100.00
2022-10-31T00:28:59.892Z,100.00
2022-10-31T00:31:28.323Z,100.00
2022-10-31T00:33:56.854Z,100.00
2022-10-31T00:36:25.736Z,100.00
2022-10-31T00:38:54.237Z,100.00
2022-10-31T00:41:23.990Z,100.00
2022-10-31T00:43:52.538Z,100.00
2022-10-31T00:46:21.014Z,100.00
2022-10-31T00:48:49.426Z,100.00
2022-10-31T00:51:17.862Z,100.00
2022-10-31T00:53:46.434Z,100.00
2022-10-31T00:56:14.639Z,100.00
2022-10-31T00:58:44.572Z,100.00
2022-10-31T01:01:13.166Z,100.00
2022-10-31T01:03:42.119Z,100.00
2022-10-31T01:06:12.650Z,100.00
2022-10-31T01:08:41.529Z,100.00
2022-10-31T01:11:13.368Z,100.00
2022-10-31T01:13:43.531Z,100.00
2022-10-31T01:16:14.251Z,100.00
2022-10-31T01:18:42.858Z,100.00
2022-10-31T01:21:13.287Z,100.00
2022-10-31T01:23:41.902Z,100.00
2022-10-31T01:26:15.971Z,100.00
2022-10-31T01:28:48.359Z,100.00
2022-10-31T01:31:17.683Z,100.00
2022-10-31T01:33:46.816Z,100.00
2022-10-31T01:36:18.583Z,100.00
2022-10-31T01:38:47.478Z,100.00
2022-10-31T01:41:17.877Z,100.00
2022-10-31T01:43:53.968Z,100.00
2022-10-31T01:46:26.823Z,100.00
2022-10-31T01:48:56.924Z,100.00
2022-10-31T01:51:31.055Z,100.00
2022-10-31T01:54:03.542Z,100.00
2022-10-31T01:56:32.440Z,100.00
2022-10-31T01:59:04.327Z,100.00
2022-10-31T02:01:33.037Z,100.00
2022-10-31T02:04:01.441Z,100.00
2022-10-31T02:06:37.499Z,100.00
2022-10-31T02:09:07.955Z,100.00
2022-10-31T02:11:38.287Z,100.00
2022-10-31T02:14:07.904Z,100.00
2022-10-31T02:16:36.666Z,100.00
2022-10-31T02:19:08.105Z,100.00
2022-10-31T02:21:45.130Z,100.00
2022-10-31T02:24:54.925Z,100.00
2022-10-31T02:27:47.567Z,100.00
2022-10-31T02:30:21.082Z,100.00
2022-10-31T02:32:57.179Z,100.00
2022-10-31T02:35:37.259Z,100.00
2022-10-31T02:38:15.532Z,100.00
2022-10-31T02:40:53.537Z,100.00
2022-10-31T02:43:25.385Z,100.00
2022-10-31T02:46:00.505Z,100.00
2022-10-31T02:48:36.277Z,100.00
2022-10-31T02:51:07.211Z,100.00
2022-10-31T02:53:36.024Z,100.00
2022-10-31T02:56:08.878Z,100.00
2022-10-31T02:58:40.720Z,100.00
2022-10-31T03:01:54.295Z,100.00
2022-10-31T03:04:39.000Z,100.00
2022-10-31T03:07:11.105Z,100.00
2022-10-31T03:09:49.208Z,100.00
2022-10-31T03:12:23.258Z,100.00
2022-10-31T03:14:55.128Z,100.00
2022-10-31T03:17:28.894Z,100.00
2022-10-31T03:20:03.187Z,100.00
2022-10-31T03:22:34.212Z,100.00
2022-10-31T03:25:06.146Z,100.00
2022-10-31T03:27:38.145Z,100.00
2022-10-31T03:30:09.508Z,100.00
2022-10-31T03:32:43.503Z,100.00
2022-10-31T03:35:15.595Z,100.00
2022-10-31T03:37:45.309Z,100.00
2022-10-31T03:40:16.021Z,100.00
2022-10-31T03:42:49.614Z,100.00
2022-10-31T03:45:24.175Z,100.00
2022-10-31T03:47:54.091Z,100.00
2022-10-31T03:50:26.675Z,100.00
2022-10-31T03:53:00.166Z,100.00
2022-10-31T03:55:33.948Z,100.00
2022-10-31T03:58:08.902Z,100.00
2022-10-31T04:00:41.876Z,100.00
2022-10-31T04:03:14.271Z,100.00
2022-10-31T04:05:47.952Z,100.00
2022-10-31T04:08:20.149Z,100.00
2022-10-31T04:10:51.469Z,100.00
2022-10-31T04:13:24.839Z,100.00
2022-10-31T04:15:56.941Z,100.00
2022-10-31T04:18:26.109Z,100.00
2022-10-31T04:21:05.270Z,100.00
2022-10-31T04:23:34.679Z,100.00
2022-10-31T04:26:03.433Z,100.00
2022-10-31T04:28:31.654Z,100.00
2022-10-31T04:30:59.795Z,100.00
2022-10-31T04:33:29.707Z,100.00
2022-10-31T04:35:57.955Z,100.00
2022-10-31T04:38:28.378Z,100.00
2022-10-31T04:40:56.503Z,100.00
2022-10-31T04:43:25.289Z,100.00
2022-10-31T04:45:53.710Z,100.00
2022-10-31T04:48:22.565Z,100.00
2022-10-31T04:50:51.198Z,100.00
2022-10-31T04:53:19.688Z,100.00
2022-10-31T04:55:49.598Z,100.00
2022-10-31T05:00:54.487Z,100.00
2022-10-31T05:03:22.915Z,100.00
2022-10-31T05:05:51.578Z,100.00
2022-10-31T05:08:20.031Z,100.00
2022-10-31T05:10:50.380Z,100.00
2022-10-31T05:13:18.768Z,100.00
2022-10-31T05:15:46.971Z,100.00
2022-10-31T05:18:15.511Z,100.00
2022-10-31T05:20:43.776Z,100.00
2022-10-31T05:23:12.311Z,100.00
2022-10-31T05:25:42.594Z,100.00
2022-10-31T05:28:12.510Z,100.00
2022-10-31T05:30:41.117Z,100.00
2022-10-31T05:33:09.737Z,100.00
2022-10-31T05:35:38.389Z,100.00
2022-10-31T05:38:06.775Z,100.00
2022-10-31T05:40:35.876Z,100.00
2022-10-31T05:43:04.312Z,100.00
2022-10-31T05:45:35.072Z,100.00
2022-10-31T05:48:04.703Z,100.00
2022-10-31T05:50:35.246Z,100.00
2022-10-31T05:53:05.723Z,100.00
2022-10-31T05:55:34.649Z,100.00
2022-10-31T05:58:03.445Z,100.00
2022-10-31T06:00:35.907Z,100.00
2022-10-31T06:03:06.819Z,100.00
2022-10-31T06:05:36.233Z,100.00
2022-10-31T06:08:05.245Z,100.00
2022-10-31T06:10:33.815Z,100.00
2022-10-31T06:13:04.714Z,100.00
2022-10-31T06:15:34.476Z,100.00
2022-10-31T06:18:04.969Z,100.00
2022-10-31T06:20:33.376Z,100.00
2022-10-31T06:23:02.258Z,100.00
2022-10-31T06:25:31.075Z,100.00
2022-10-31T06:28:00.265Z,100.00
2022-10-31T06:30:29.890Z,100.00
2022-10-31T06:33:04.501Z,100.00
2022-10-31T06:35:33.652Z,100.00
2022-10-31T06:38:02.788Z,100.00
2022-10-31T06:40:31.715Z,100.00
2022-10-31T06:43:01.006Z,100.00
2022-10-31T06:45:29.693Z,100.00
2022-10-31T06:48:17.621Z,100.00
2022-10-31T06:50:46.527Z,100.00
2022-10-31T06:53:15.760Z,100.00
2022-10-31T06:55:45.167Z,100.00
2022-10-31T06:58:14.133Z,100.00
2022-10-31T07:00:42.868Z,100.00
2022-10-31T07:03:14.984Z,100.00
2022-10-31T07:05:44.204Z,100.00
2022-10-31T07:08:14.569Z,100.00
2022-10-31T07:10:44.848Z,100.00
2022-10-31T07:13:15.022Z,100.00
2022-10-31T07:15:45.087Z,100.00
2022-10-31T07:18:16.552Z,100.00
2022-10-31T07:20:45.154Z,100.00
2022-10-31T07:23:14.672Z,100.00
2022-10-31T07:25:43.629Z,100.00
2022-10-31T07:28:12.016Z,100.00
2022-10-31T07:30:40.916Z,100.00
2022-10-31T07:33:09.707Z,100.00
2022-10-31T07:35:40.152Z,100.00
2022-10-31T07:38:13.011Z,100.00
2022-10-31T07:40:42.221Z,100.00
2022-10-31T07:43:14.429Z,100.00
2022-10-31T07:45:43.246Z,100.00
2022-10-31T07:48:11.879Z,100.00
2022-10-31T07:50:42.021Z,100.00
2022-10-31T07:53:12.129Z,100.00
2022-10-31T07:55:41.986Z,100.00
2022-10-31T07:58:12.795Z,100.00
2022-10-31T08:00:44.507Z,100.00
2022-10-31T08:03:14.360Z,100.00
2022-10-31T08:05:47.356Z,100.00
2022-10-31T08:08:17.630Z,100.00
2022-10-31T08:10:45.969Z,100.00
2022-10-31T08:13:15.984Z,100.00
2022-10-31T08:15:45.591Z,100.00
2022-10-31T08:18:15.418Z,100.00
2022-10-31T08:20:46.686Z,100.00
2022-10-31T08:23:17.395Z,100.00
2022-10-31T08:25:48.258Z,100.00
2022-10-31T08:28:17.352Z,100.00
2022-10-31T08:30:47.355Z,100.00
2022-10-31T08:33:19.108Z,100.00
2022-10-31T08:35:49.859Z,100.00
2022-10-31T08:38:18.730Z,100.00
2022-10-31T08:40:51.124Z,100.00
2022-10-31T08:43:20.404Z,100.00
2022-10-31T08:45:52.326Z,100.00
2022-10-31T08:48:20.665Z,100.00
2022-10-31T08:50:51.623Z,100.00
2022-10-31T08:53:21.457Z,100.00
2022-10-31T08:55:49.952Z,100.00
2022-10-31T08:58:21.815Z,100.00
2022-10-31T09:00:52.619Z,100.00
2022-10-31T09:03:23.064Z,100.00
2022-10-31T09:05:56.500Z,100.00
2022-10-31T09:08:25.071Z,100.00
2022-10-31T09:10:54.329Z,100.00
2022-10-31T09:13:27.328Z,100.00
2022-10-31T09:15:58.763Z,100.00
2022-10-31T09:18:29.042Z,100.00
2022-10-31T09:21:01.168Z,100.00
2022-10-31T09:23:30.577Z,100.00
2022-10-31T09:26:02.029Z,100.00
2022-10-31T09:28:30.968Z,100.00
2022-10-31T09:30:59.510Z,100.00
2022-10-31T09:33:28.254Z,100.00
2022-10-31T09:35:56.676Z,100.00
2022-10-31T09:38:26.634Z,100.00
2022-10-31T09:41:03.780Z,100.00
2022-10-31T09:43:39.038Z,100.00
2022-10-31T09:46:12.721Z,100.00
2022-10-31T09:48:51.973Z,100.00
2022-10-31T09:51:25.672Z,100.00
2022-10-31T09:54:02.887Z,100.00
2022-10-31T09:56:36.238Z,100.00
2022-10-31T09:59:07.198Z,100.00
2022-10-31T10:01:43.433Z,100.00
2022-10-31T10:04:35.836Z,100.00
2022-10-31T10:07:10.751Z,100.00
2022-10-31T10:09:40.576Z,100.00
2022-10-31T10:12:19.551Z,100.00
2022-10-31T10:15:03.511Z,100.00
2022-10-31T10:17:40.884Z,100.00
2022-10-31T10:20:24.632Z,100.00
2022-10-31T10:23:03.953Z,100.00
2022-10-31T10:25:40.681Z,100.00
2022-10-31T10:28:20.675Z,100.00
2022-10-31T10:30:53.094Z,100.00
2022-10-31T10:33:30.950Z,100.00
2022-10-31T10:36:02.141Z,100.00
2022-10-31T10:38:37.247Z,100.00
2022-10-31T10:41:12.721Z,100.00
2022-10-31T10:43:42.250Z,100.00
2022-10-31T10:46:41.388Z,100.00
2022-10-31T10:49:20.285Z,100.00
2022-10-31T10:52:07.319Z,100.00
2022-10-31T10:54:49.917Z,100.00
2022-10-31T10:57:30.495Z,100.00
2022-10-31T11:00:01.943Z,100.00
2022-10-31T11:02:34.335Z,100.00
2022-10-31T11:05:05.766Z,100.00
2022-10-31T11:07:42.015Z,100.00
2022-10-31T11:10:16.562Z,100.00
2022-10-31T11:12:48.815Z,100.00
2022-10-31T11:15:25.085Z,100.00
2022-10-31T11:17:57.254Z,100.00
2022-10-31T11:20:32.613Z,97.22
2022-10-31T11:23:18.370Z,95.47
2022-10-31T11:25:56.516Z,98.12
2022-10-31T11:28:27.121Z,100.00
2022-10-31T11:30:58.454Z,94.54
2022-10-31T11:33:32.611Z,95.78
2022-10-31T11:36:02.795Z,97.43
2022-10-31T11:38:37.430Z,95.17
2022-10-31T11:41:17.490Z,97.13
2022-10-31T11:43:53.325Z,96.02
2022-10-31T11:46:25.307Z,92.97
2022-10-31T11:48:56.064Z,95.26
2022-10-31T11:51:26.476Z,93.00
2022-10-31T11:54:00.135Z,94.27
2022-10-31T11:56:41.041Z,95.54
2022-10-31T11:59:20.883Z,97.53
2022-10-31T12:01:51.842Z,89.29
2022-10-31T12:04:20.864Z,90.06
2022-10-31T12:06:51.990Z,91.27
2022-10-31T12:09:23.641Z,90.30
2022-10-31T12:12:06.553Z,90.06
2022-10-31T12:15:04.221Z,93.74
2022-10-31T12:17:40.891Z,95.97
2022-10-31T12:20:23.996Z,92.28
2022-10-31T12:23:01.556Z,95.15
2022-10-31T12:25:42.573Z,96.43
2022-10-31T12:28:27.395Z,96.01
2022-10-31T12:31:11.927Z,96.09
2022-10-31T12:33:53.099Z,98.94
2022-10-31T12:36:37.506Z,98.07
2022-10-31T12:39:26.947Z,96.57
2022-10-31T12:42:03.605Z,97.94
2022-10-31T12:45:09.341Z,98.02
2022-10-31T12:48:01.810Z,99.64
2022-10-31T12:50:39.366Z,96.45
2022-10-31T12:53:26.765Z,99.56
2022-10-31T12:56:07.978Z,96.25
2022-10-31T12:58:42.400Z,94.46
2022-10-31T13:01:17.180Z,96.72
2022-10-31T13:03:55.260Z,94.47
2022-10-31T13:06:30.059Z,97.35
2022-10-31T13:09:04.197Z,99.12
2022-10-31T13:11:37.901Z,97.72
2022-10-31T13:14:14.449Z,98.16
2022-10-31T13:16:46.340Z,100.00
2022-10-31T13:19:20.574Z,100.00
2022-10-31T13:22:00.575Z,100.00
2022-10-31T13:24:35.813Z,100.00
2022-10-31T13:27:12.113Z,100.00
2022-10-31T13:29:46.503Z,100.00
2022-10-31T13:32:14.888Z,100.00
2022-10-31T13:34:49.412Z,100.00
2022-10-31T13:37:24.240Z,100.00
2022-10-31T13:40:14.408Z,100.00
2022-10-31T13:43:00.428Z,100.00
2022-10-31T13:45:29.634Z,100.00
2022-10-31T13:48:01.785Z,100.00
2022-10-31T13:50:33.730Z,100.00
2022-10-31T13:53:17.519Z,100.00
2022-10-31T13:55:47.870Z,100.00
2022-10-31T13:58:27.347Z,100.00
2022-10-31T14:01:18.726Z,100.00
2022-10-31T14:04:07.827Z,100.00
2022-10-31T14:06:49.659Z,100.00
2022-10-31T14:09:25.152Z,100.00
2022-10-31T14:11:55.062Z,100.00
2022-10-31T14:14:26.244Z,100.00
2022-10-31T14:16:59.950Z,100.00
2022-10-31T14:19:29.215Z,100.00
2022-10-31T14:21:59.264Z,100.00
2022-10-31T14:24:39.597Z,100.00
2022-10-31T14:27:37.364Z,100.00
2022-10-31T14:30:24.676Z,100.00
2022-10-31T14:32:59.844Z,100.00
2022-10-31T14:35:38.228Z,100.00
2022-10-31T14:38:45.906Z,100.00
2022-10-31T14:41:38.116Z,100.00
2022-10-31T14:44:37.459Z,100.00
2022-10-31T14:47:18.721Z,100.00
2022-10-31T14:50:05.711Z,100.00
2022-10-31T14:52:35.316Z,100.00
2022-10-31T14:55:10.541Z,100.00
2022-10-31T14:57:40.872Z,100.00
2022-10-31T15:00:17.665Z,100.00
2022-10-31T15:02:54.229Z,100.00
2022-10-31T15:05:24.280Z,100.00
2022-10-31T15:07:54.718Z,100.00
2022-10-31T15:10:27.689Z,100.00
2022-10-31T15:12:56.404Z,100.00
2022-10-31T15:15:27.328Z,100.00
2022-10-31T15:17:58.911Z,100.00
2022-10-31T15:20:30.042Z,100.00
2022-10-31T15:23:00.357Z,100.00
2022-10-31T15:25:32.907Z,100.00
2022-10-31T15:28:01.858Z,100.00
2022-10-31T15:30:31.958Z,100.00
2022-10-31T15:33:00.347Z,100.00
2022-10-31T15:35:31.296Z,100.00
2022-10-31T15:38:02.857Z,100.00
2022-10-31T15:40:33.582Z,100.00
2022-10-31T15:43:04.687Z,100.00
2022-10-31T15:45:34.322Z,100.00
2022-10-31T15:48:06.999Z,100.00
2022-10-31T15:50:38.651Z,100.00
2022-10-31T15:53:09.413Z,100.00
2022-10-31T15:55:48.339Z,100.00
2022-10-31T15:58:19.281Z,100.00
2022-10-31T16:00:58.843Z,100.00
2022-10-31T16:03:29.230Z,100.00
2022-10-31T16:05:59.988Z,100.00
2022-10-31T16:08:35.435Z,100.00
2022-10-31T16:11:20.513Z,100.00
2022-10-31T16:13:57.576Z,100.00
2022-10-31T16:16:35.322Z,100.00
2022-10-31T16:19:06.938Z,100.00
2022-10-31T16:21:39.013Z,100.00
2022-10-31T16:24:19.157Z,100.00
2022-10-31T16:26:52.938Z,100.00
2022-10-31T16:29:29.947Z,100.00
2022-10-31T16:31:59.128Z,100.00
2022-10-31T16:34:28.451Z,100.00
2022-10-31T16:36:57.201Z,100.00
2022-10-31T16:39:25.799Z,100.00
2022-10-31T16:41:59.084Z,100.00
2022-10-31T16:44:29.448Z,100.00
2022-10-31T16:47:16.771Z,100.00
2022-10-31T16:49:46.472Z,100.00
2022-10-31T16:52:15.374Z,100.00
2022-10-31T16:54:43.866Z,100.00
2022-10-31T16:57:18.081Z,100.00
2022-10-31T16:59:49.749Z,100.00
2022-10-31T17:02:20.069Z,100.00
2022-10-31T17:04:50.896Z,100.00
2022-10-31T17:07:22.255Z,100.00
2022-10-31T17:09:50.507Z,100.00
2022-10-31T17:12:23.500Z,100.00
2022-10-31T17:14:53.963Z,100.00
2022-10-31T17:17:23.769Z,100.00
2022-10-31T17:19:52.224Z,100.00
2022-10-31T17:22:20.579Z,100.00
2022-10-31T17:24:48.898Z,100.00
2022-10-31T17:27:17.719Z,100.00
2022-10-31T17:29:47.453Z,100.00
2022-10-31T17:32:16.491Z,100.00
2022-10-31T17:34:44.882Z,100.00
2022-10-31T17:37:14.052Z,100.00
2022-10-31T17:39:44.097Z,100.00
2022-10-31T17:42:13.342Z,100.00
2022-10-31T17:44:42.300Z,100.00
2022-10-31T17:47:12.791Z,100.00
2022-10-31T17:49:41.232Z,100.00
2022-10-31T17:52:10.414Z,100.00
2022-10-31T17:54:39.032Z,100.00
2022-10-31T17:57:07.591Z,100.00
2022-10-31T17:59:36.469Z,100.00
2022-10-31T18:02:09.265Z,100.00
2022-10-31T18:04:40.619Z,100.00
2022-10-31T18:07:11.026Z,100.00
2022-10-31T18:09:39.742Z,100.00
2022-10-31T18:12:08.133Z,100.00
2022-10-31T18:14:36.675Z,100.00
2022-10-31T18:17:05.934Z,100.00
2022-10-31T18:19:34.410Z,100.00
2022-10-31T18:22:04.945Z,100.00
2022-10-31T18:24:33.475Z,100.00
2022-10-31T18:27:02.006Z,100.00
2022-10-31T18:29:30.493Z,100.00
2022-10-31T18:31:59.080Z,100.00
2022-10-31T18:34:27.636Z,100.00
2022-10-31T18:36:57.075Z,100.00
2022-10-31T18:39:27.488Z,100.00
2022-10-31T18:41:57.301Z,100.00
2022-10-31T18:44:26.941Z,100.00
2022-10-31T18:46:56.070Z,100.00
2022-10-31T18:49:24.996Z,100.00
2022-10-31T18:51:54.681Z,100.00
2022-10-31T18:54:23.156Z,100.00
2022-10-31T18:56:53.273Z,100.00
2022-10-31T18:59:21.869Z,100.00
2022-10-31T19:01:51.715Z,100.00
2022-10-31T19:04:20.691Z,100.00
2022-10-31T19:06:50.135Z,100.00
2022-10-31T19:09:19.679Z,100.00
2022-10-31T19:11:48.900Z,100.00
2022-10-31T19:14:19.218Z,100.00
2022-10-31T19:16:51.928Z,100.00
2022-10-31T19:19:21.207Z,100.00
2022-10-31T19:21:49.891Z,100.00
2022-10-31T19:24:18.881Z,100.00
2022-10-31T19:26:48.003Z,100.00
2022-10-31T19:29:16.905Z,100.00
2022-10-31T19:31:48.773Z,100.00
2022-10-31T19:34:18.314Z,100.00
2022-10-31T19:36:47.085Z,100.00
2022-10-31T19:39:16.841Z,100.00
2022-10-31T19:41:46.808Z,100.00
2022-10-31T19:44:16.236Z,100.00
2022-10-31T19:46:52.733Z,100.00
2022-10-31T19:49:24.862Z,100.00
2022-10-31T19:51:54.227Z,100.00
2022-10-31T19:54:23.261Z,100.00
2022-10-31T19:56:52.118Z,100.00
2022-10-31T19:59:20.814Z,100.00
2022-10-31T20:01:49.441Z,100.00
2022-10-31T20:04:17.998Z,100.00
2022-10-31T20:06:48.725Z,100.00
2022-10-31T20:09:17.333Z,100.00
2022-10-31T20:11:47.957Z,100.00
2022-10-31T20:14:17.995Z,100.00
2022-10-31T20:16:47.336Z,100.00
2022-10-31T20:19:16.255Z,100.00
2022-10-31T20:21:44.943Z,100.00
2022-10-31T20:24:15.503Z,100.00
2022-10-31T20:26:44.130Z,100.00
2022-10-31T20:29:16.325Z,100.00
2022-10-31T20:31:46.355Z,100.00
2022-10-31T20:34:15.587Z,100.00
2022-10-31T20:36:44.589Z,100.00
2022-10-31T20:39:15.701Z,100.00
2022-10-31T20:41:44.134Z,100.00
2022-10-31T20:44:13.039Z,100.00
2022-10-31T20:46:41.406Z,100.00
2022-10-31T20:49:10.394Z,100.00
2022-10-31T20:51:39.085Z,100.00
2022-10-31T20:54:08.095Z,100.00
2022-10-31T20:56:37.787Z,100.00
2022-10-31T20:59:07.620Z,100.00
2022-10-31T21:01:38.081Z,100.00
2022-10-31T21:04:12.153Z,100.00
2022-10-31T21:06:44.005Z,100.00
2022-10-31T21:09:14.983Z,100.00
2022-10-31T21:11:46.868Z,100.00
2022-10-31T21:14:15.324Z,100.00
2022-10-31T21:16:43.771Z,100.00
2022-10-31T21:19:13.207Z,100.00
2022-10-31T21:21:41.955Z,100.00
2022-10-31T21:24:13.871Z,100.00
2022-10-31T21:26:48.467Z,100.00
2022-10-31T21:29:17.660Z,100.00
2022-10-31T21:31:46.694Z,100.00
2022-10-31T21:34:16.197Z,100.00
2022-10-31T21:36:44.790Z,100.00
2022-10-31T21:39:13.765Z,100.00
2022-10-31T21:41:42.162Z,100.00
2022-10-31T21:44:12.161Z,100.00
2022-10-31T21:46:42.485Z,100.00
2022-10-31T21:49:12.738Z,100.00
2022-10-31T21:51:43.072Z,100.00
2022-10-31T21:54:30.378Z,100.00
2022-10-31T21:57:00.398Z,100.00
2022-10-31T21:59:30.897Z,100.00
2022-10-31T22:02:01.160Z,100.00
2022-10-31T22:04:30.209Z,100.00
2022-10-31T22:06:59.326Z,100.00
2022-10-31T22:09:28.062Z,100.00
2022-10-31T22:11:57.972Z,100.00
2022-10-31T22:14:26.629Z,100.00
2022-10-31T22:16:56.787Z,100.00
2022-10-31T22:19:26.189Z,100.00
2022-10-31T22:21:55.199Z,100.00
2022-10-31T22:24:24.803Z,100.00
2022-10-31T22:26:53.804Z,100.00
2022-10-31T22:29:23.212Z,100.00
2022-10-31T22:31:58.717Z,100.00
2022-10-31T22:34:33.271Z,100.00
2022-10-31T22:37:02.337Z,100.00
2022-10-31T22:39:31.467Z,100.00
2022-10-31T22:42:02.686Z,100.00
2022-10-31T22:44:31.151Z,100.00
2022-10-31T22:47:00.269Z,100.00
2022-10-31T22:49:28.733Z,100.00
2022-10-31T22:52:03.285Z,100.00
2022-10-31T22:54:32.930Z,100.00
2022-10-31T22:57:01.721Z,100.00
2022-10-31T22:59:30.323Z,100.00
2022-10-31T23:01:59.222Z,100.00
2022-10-31T23:04:28.081Z,100.00
2022-10-31T23:06:58.116Z,100.00
2022-10-31T23:09:27.948Z,100.00
2022-10-31T23:12:16.501Z,100.00
2022-10-31T23:14:44.745Z,100.00
2022-10-31T23:17:18.041Z,100.00
2022-10-31T23:19:47.994Z,100.00
2022-10-31T23:22:18.295Z,100.00
2022-10-31T23:24:51.086Z,100.00
2022-10-31T23:27:21.228Z,100.00
2022-10-31T23:29:52.021Z,100.00
2022-10-31T23:32:22.390Z,100.00
2022-10-31T23:34:52.811Z,100.00
2022-10-31T23:37:26.154Z,100.00
2022-10-31T23:39:55.545Z,100.00
2022-10-31T23:42:24.826Z,100.00
2022-10-31T23:44:53.919Z,100.00
2022-10-31T23:47:23.536Z,100.00
2022-10-31T23:49:53.891Z,100.00
2022-10-31T23:52:23.776Z,100.00
2022-10-31T23:54:52.476Z,100.00
2022-10-31T23:57:21.139Z,100.00
2022-10-31T23:59:49.756Z,100.00
